sensor_id;sensor_type;location;lat;lon;timestamp;P1;durP1;ratioP1;P2;durP2;ratioP2
908;SDS011;441;51.192;6.788;2023-04-06T00:00:23;8.00;;;7.80;;
908;SDS011;441;51.192;6.788;2023-04-06T00:02:51;7.77;;;7.57;;
908;SDS011;441;51.192;6.788;2023-04-06T00:05:18;6.53;;;6.37;;
908;SDS011;441;51.192;6.788;2023-04-06T00:07:45;7.63;;;7.43;;
908;SDS011;441;51.192;6.788;2023-04-06T00:10:12;7.40;;;7.20;;
908;SDS011;441;51.192;6.788;2023-04-06T00:12:39;7.80;;;7.60;;
908;SDS011;441;51.192;6.788;2023-04-06T00:15:07;8.80;;;8.60;;
908;SDS011;441;51.192;6.788;2023-04-06T00:17:36;8.33;;;8.13;;
908;SDS011;441;51.192;6.788;2023-04-06T00:20:03;9.27;;;9.07;;
908;SDS011;441;51.192;6.788;2023-04-06T00:22:31;8.70;;;8.40;;
908;SDS011;441;51.192;6.788;2023-04-06T00:24:58;8.30;;;8.10;;
908;SDS011;441;51.192;6.788;2023-04-06T00:27:25;9.03;;;8.83;;
908;SDS011;441;51.192;6.788;2023-04-06T00:29:52;8.50;;;8.30;;
908;SDS011;441;51.192;6.788;2023-04-06T00:32:19;9.00;;;8.80;;
908;SDS011;441;51.192;6.788;2023-04-06T00:34:48;9.00;;;8.80;;
908;SDS011;441;51.192;6.788;2023-04-06T00:37:15;7.97;;;7.77;;
908;SDS011;441;51.192;6.788;2023-04-06T00:39:42;8.47;;;8.17;;
908;SDS011;441;51.192;6.788;2023-04-06T00:42:10;8.37;;;8.10;;
908;SDS011;441;51.192;6.788;2023-04-06T00:44:39;8.17;;;7.97;;
908;SDS011;441;51.192;6.788;2023-04-06T00:47:06;8.17;;;7.97;;
908;SDS011;441;51.192;6.788;2023-04-06T00:49:33;8.10;;;7.83;;
908;SDS011;441;51.192;6.788;2023-04-06T00:52:02;8.50;;;8.20;;
908;SDS011;441;51.192;6.788;2023-04-06T00:54:29;8.63;;;8.43;;
908;SDS011;441;51.192;6.788;2023-04-06T00:56:56;7.77;;;7.57;;
908;SDS011;441;51.192;6.788;2023-04-06T00:59:23;8.63;;;8.33;;
908;SDS011;441;51.192;6.788;2023-04-06T01:01:50;8.13;;;7.90;;
908;SDS011;441;51.192;6.788;2023-04-06T01:04:17;7.80;;;7.60;;
908;SDS011;441;51.192;6.788;2023-04-06T01:06:45;7.80;;;7.60;;
908;SDS011;441;51.192;6.788;2023-04-06T01:09:13;7.43;;;7.23;;
908;SDS011;441;51.192;6.788;2023-04-06T01:11:40;7.60;;;7.40;;
908;SDS011;441;51.192;6.788;2023-04-06T01:14:07;7.20;;;7.00;;
908;SDS011;441;51.192;6.788;2023-04-06T01:16:34;9.00;;;8.60;;
908;SDS011;441;51.192;6.788;2023-04-06T01:19:04;7.93;;;7.73;;
908;SDS011;441;51.192;6.788;2023-04-06T01:21:34;8.00;;;7.80;;
908;SDS011;441;51.192;6.788;2023-04-06T01:24:03;8.20;;;7.90;;
908;SDS011;441;51.192;6.788;2023-04-06T01:26:31;7.97;;;7.67;;
908;SDS011;441;51.192;6.788;2023-04-06T01:28:59;8.50;;;8.10;;
908;SDS011;441;51.192;6.788;2023-04-06T01:31:26;8.00;;;7.80;;
908;SDS011;441;51.192;6.788;2023-04-06T01:33:53;8.30;;;7.83;;
908;SDS011;441;51.192;6.788;2023-04-06T01:36:21;8.73;;;8.37;;
908;SDS011;441;51.192;6.788;2023-04-06T01:38:48;7.80;;;7.60;;
908;SDS011;441;51.192;6.788;2023-04-06T01:41:16;8.87;;;8.53;;
908;SDS011;441;51.192;6.788;2023-04-06T01:43:43;7.90;;;7.70;;
908;SDS011;441;51.192;6.788;2023-04-06T01:46:11;7.90;;;7.70;;
908;SDS011;441;51.192;6.788;2023-04-06T01:48:37;8.47;;;8.20;;
908;SDS011;441;51.192;6.788;2023-04-06T01:51:04;7.67;;;7.47;;
908;SDS011;441;51.192;6.788;2023-04-06T01:53:31;7.60;;;7.37;;
908;SDS011;441;51.192;6.788;2023-04-06T01:55:58;7.80;;;7.50;;
908;SDS011;441;51.192;6.788;2023-04-06T01:58:27;7.80;;;7.60;;
908;SDS011;441;51.192;6.788;2023-04-06T02:00:54;8.00;;;7.80;;
908;SDS011;441;51.192;6.788;2023-04-06T02:03:21;8.30;;;8.10;;
908;SDS011;441;51.192;6.788;2023-04-06T02:05:48;8.57;;;8.20;;
908;SDS011;441;51.192;6.788;2023-04-06T02:08:15;7.43;;;7.23;;
908;SDS011;441;51.192;6.788;2023-04-06T02:10:42;7.80;;;7.60;;
908;SDS011;441;51.192;6.788;2023-04-06T02:13:09;8.20;;;7.90;;
908;SDS011;441;51.192;6.788;2023-04-06T02:15:37;7.93;;;7.73;;
908;SDS011;441;51.192;6.788;2023-04-06T02:18:04;7.73;;;7.53;;
908;SDS011;441;51.192;6.788;2023-04-06T02:20:31;7.53;;;7.33;;
908;SDS011;441;51.192;6.788;2023-04-06T02:22:58;7.93;;;7.60;;
908;SDS011;441;51.192;6.788;2023-04-06T02:25:26;8.07;;;7.87;;
908;SDS011;441;51.192;6.788;2023-04-06T02:27:53;7.20;;;7.00;;
908;SDS011;441;51.192;6.788;2023-04-06T02:30:20;7.10;;;6.90;;
908;SDS011;441;51.192;6.788;2023-04-06T02:32:48;9.13;;;8.80;;
908;SDS011;441;51.192;6.788;2023-04-06T02:35:15;7.97;;;7.73;;
908;SDS011;441;51.192;6.788;2023-04-06T02:37:43;8.47;;;8.27;;
908;SDS011;441;51.192;6.788;2023-04-06T02:40:10;8.73;;;8.53;;
908;SDS011;441;51.192;6.788;2023-04-06T02:42:37;9.30;;;9.00;;
908;SDS011;441;51.192;6.788;2023-04-06T02:45:04;8.87;;;8.57;;
908;SDS011;441;51.192;6.788;2023-04-06T02:47:32;8.90;;;8.60;;
908;SDS011;441;51.192;6.788;2023-04-06T02:50:01;7.80;;;7.60;;
908;SDS011;441;51.192;6.788;2023-04-06T02:52:28;8.10;;;7.80;;
908;SDS011;441;51.192;6.788;2023-04-06T02:54:55;8.10;;;7.90;;
908;SDS011;441;51.192;6.788;2023-04-06T02:57:22;8.70;;;8.40;;
908;SDS011;441;51.192;6.788;2023-04-06T02:59:49;8.23;;;7.93;;
908;SDS011;441;51.192;6.788;2023-04-06T03:02:16;7.57;;;7.30;;
908;SDS011;441;51.192;6.788;2023-04-06T03:04:43;8.00;;;7.70;;
908;SDS011;441;51.192;6.788;2023-04-06T03:07:12;8.93;;;8.63;;
908;SDS011;441;51.192;6.788;2023-04-06T03:09:39;7.97;;;7.70;;
908;SDS011;441;51.192;6.788;2023-04-06T03:12:06;8.00;;;7.60;;
908;SDS011;441;51.192;6.788;2023-04-06T03:14:33;7.37;;;7.17;;
908;SDS011;441;51.192;6.788;2023-04-06T03:17:00;7.67;;;7.47;;
908;SDS011;441;51.192;6.788;2023-04-06T03:19:27;8.17;;;7.80;;
908;SDS011;441;51.192;6.788;2023-04-06T03:21:54;7.70;;;7.50;;
908;SDS011;441;51.192;6.788;2023-04-06T03:24:22;7.40;;;7.20;;
908;SDS011;441;51.192;6.788;2023-04-06T03:26:49;9.27;;;8.87;;
908;SDS011;441;51.192;6.788;2023-04-06T03:29:16;8.03;;;7.43;;
908;SDS011;441;51.192;6.788;2023-04-06T03:31:43;7.80;;;7.60;;
908;SDS011;441;51.192;6.788;2023-04-06T03:34:10;8.20;;;7.80;;
908;SDS011;441;51.192;6.788;2023-04-06T03:36:37;7.60;;;7.30;;
908;SDS011;441;51.192;6.788;2023-04-06T03:39:04;8.00;;;7.70;;
908;SDS011;441;51.192;6.788;2023-04-06T03:41:32;7.20;;;7.00;;
908;SDS011;441;51.192;6.788;2023-04-06T03:44:00;7.40;;;7.10;;
908;SDS011;441;51.192;6.788;2023-04-06T03:46:27;8.50;;;8.10;;
908;SDS011;441;51.192;6.788;2023-04-06T03:48:54;7.73;;;7.43;;
908;SDS011;441;51.192;6.788;2023-04-06T03:51:21;7.90;;;7.60;;
908;SDS011;441;51.192;6.788;2023-04-06T03:53:48;6.90;;;6.70;;
908;SDS011;441;51.192;6.788;2023-04-06T03:56:15;7.13;;;6.93;;
908;SDS011;441;51.192;6.788;2023-04-06T03:58:43;7.47;;;7.17;;
908;SDS011;441;51.192;6.788;2023-04-06T04:01:14;6.90;;;6.70;;
908;SDS011;441;51.192;6.788;2023-04-06T04:03:41;6.70;;;6.40;;
908;SDS011;441;51.192;6.788;2023-04-06T04:06:08;6.33;;;6.13;;
908;SDS011;441;51.192;6.788;2023-04-06T04:08:35;5.90;;;5.70;;
908;SDS011;441;51.192;6.788;2023-04-06T04:11:02;6.93;;;6.63;;
908;SDS011;441;51.192;6.788;2023-04-06T04:13:29;6.47;;;6.07;;
908;SDS011;441;51.192;6.788;2023-04-06T04:15:57;6.80;;;6.50;;
908;SDS011;441;51.192;6.788;2023-04-06T04:18:24;7.03;;;6.83;;
908;SDS011;441;51.192;6.788;2023-04-06T04:20:51;6.30;;;6.10;;
908;SDS011;441;51.192;6.788;2023-04-06T04:23:18;6.33;;;6.13;;
908;SDS011;441;51.192;6.788;2023-04-06T04:25:46;6.50;;;6.30;;
908;SDS011;441;51.192;6.788;2023-04-06T04:28:13;7.00;;;6.70;;
908;SDS011;441;51.192;6.788;2023-04-06T04:30:40;6.57;;;6.40;;
908;SDS011;441;51.192;6.788;2023-04-06T04:33:08;7.90;;;7.53;;
908;SDS011;441;51.192;6.788;2023-04-06T04:35:35;7.00;;;6.80;;
908;SDS011;441;51.192;6.788;2023-04-06T04:38:02;6.90;;;6.70;;
908;SDS011;441;51.192;6.788;2023-04-06T04:40:29;6.10;;;6.00;;
908;SDS011;441;51.192;6.788;2023-04-06T04:42:56;6.50;;;6.30;;
908;SDS011;441;51.192;6.788;2023-04-06T04:45:23;7.80;;;7.20;;
908;SDS011;441;51.192;6.788;2023-04-06T04:47:50;7.50;;;7.20;;
908;SDS011;441;51.192;6.788;2023-04-06T04:50:18;7.87;;;7.27;;
908;SDS011;441;51.192;6.788;2023-04-06T04:52:45;8.47;;;7.77;;
908;SDS011;441;51.192;6.788;2023-04-06T04:55:12;11.70;;;10.57;;
908;SDS011;441;51.192;6.788;2023-04-06T04:57:39;8.10;;;7.40;;
908;SDS011;441;51.192;6.788;2023-04-06T05:00:07;19.93;;;7.70;;
908;SDS011;441;51.192;6.788;2023-04-06T05:02:34;7.93;;;7.33;;
908;SDS011;441;51.192;6.788;2023-04-06T05:05:01;10.87;;;7.30;;
908;SDS011;441;51.192;6.788;2023-04-06T05:07:30;8.20;;;7.60;;
908;SDS011;441;51.192;6.788;2023-04-06T05:09:57;8.27;;;7.57;;
908;SDS011;441;51.192;6.788;2023-04-06T05:12:24;7.27;;;6.90;;
908;SDS011;441;51.192;6.788;2023-04-06T05:14:52;7.50;;;6.97;;
908;SDS011;441;51.192;6.788;2023-04-06T05:17:19;8.43;;;7.70;;
908;SDS011;441;51.192;6.788;2023-04-06T05:19:46;7.70;;;7.20;;
908;SDS011;441;51.192;6.788;2023-04-06T05:22:13;9.57;;;8.37;;
908;SDS011;441;51.192;6.788;2023-04-06T05:24:45;7.37;;;6.77;;
908;SDS011;441;51.192;6.788;2023-04-06T05:27:12;7.73;;;6.93;;
908;SDS011;441;51.192;6.788;2023-04-06T05:29:39;7.57;;;7.07;;
908;SDS011;441;51.192;6.788;2023-04-06T05:34:36;7.70;;;7.17;;
908;SDS011;441;51.192;6.788;2023-04-06T05:37:03;7.40;;;7.07;;
908;SDS011;441;51.192;6.788;2023-04-06T05:39:30;7.63;;;7.23;;
908;SDS011;441;51.192;6.788;2023-04-06T05:42:01;6.87;;;6.47;;
908;SDS011;441;51.192;6.788;2023-04-06T05:44:30;6.43;;;6.20;;
908;SDS011;441;51.192;6.788;2023-04-06T05:46:57;6.67;;;6.27;;
908;SDS011;441;51.192;6.788;2023-04-06T05:49:24;7.57;;;7.07;;
908;SDS011;441;51.192;6.788;2023-04-06T05:51:51;6.97;;;6.40;;
908;SDS011;441;51.192;6.788;2023-04-06T05:54:18;7.03;;;6.73;;
908;SDS011;441;51.192;6.788;2023-04-06T05:56:45;7.10;;;6.90;;
908;SDS011;441;51.192;6.788;2023-04-06T05:59:14;7.20;;;6.80;;
908;SDS011;441;51.192;6.788;2023-04-06T06:01:41;6.70;;;6.40;;
908;SDS011;441;51.192;6.788;2023-04-06T06:04:08;6.40;;;6.20;;
908;SDS011;441;51.192;6.788;2023-04-06T06:06:35;8.50;;;8.00;;
908;SDS011;441;51.192;6.788;2023-04-06T06:09:02;6.10;;;5.90;;
908;SDS011;441;51.192;6.788;2023-04-06T06:11:29;6.70;;;6.40;;
908;SDS011;441;51.192;6.788;2023-04-06T06:13:58;7.23;;;6.93;;
908;SDS011;441;51.192;6.788;2023-04-06T06:16:26;7.13;;;6.83;;
908;SDS011;441;51.192;6.788;2023-04-06T06:18:53;7.80;;;7.23;;
908;SDS011;441;51.192;6.788;2023-04-06T06:21:20;7.03;;;6.83;;
908;SDS011;441;51.192;6.788;2023-04-06T06:23:47;7.20;;;7.00;;
908;SDS011;441;51.192;6.788;2023-04-06T06:26:15;7.30;;;7.00;;
908;SDS011;441;51.192;6.788;2023-04-06T06:28:42;7.40;;;6.80;;
908;SDS011;441;51.192;6.788;2023-04-06T06:31:09;7.40;;;7.13;;
908;SDS011;441;51.192;6.788;2023-04-06T06:33:37;6.47;;;6.03;;
908;SDS011;441;51.192;6.788;2023-04-06T06:36:05;7.23;;;6.90;;
908;SDS011;441;51.192;6.788;2023-04-06T06:38:32;7.70;;;7.30;;
908;SDS011;441;51.192;6.788;2023-04-06T06:40:59;7.07;;;6.77;;
908;SDS011;441;51.192;6.788;2023-04-06T06:43:26;7.00;;;6.57;;
908;SDS011;441;51.192;6.788;2023-04-06T06:45:53;7.47;;;7.27;;
908;SDS011;441;51.192;6.788;2023-04-06T06:48:20;7.30;;;7.00;;
908;SDS011;441;51.192;6.788;2023-04-06T06:50:48;7.40;;;7.00;;
908;SDS011;441;51.192;6.788;2023-04-06T06:53:15;7.07;;;6.77;;
908;SDS011;441;51.192;6.788;2023-04-06T06:55:42;6.80;;;6.60;;
908;SDS011;441;51.192;6.788;2023-04-06T06:58:10;7.07;;;6.77;;
908;SDS011;441;51.192;6.788;2023-04-06T07:00:37;6.53;;;6.33;;
908;SDS011;441;51.192;6.788;2023-04-06T07:03:04;7.10;;;6.80;;
908;SDS011;441;51.192;6.788;2023-04-06T07:05:31;6.20;;;6.10;;
908;SDS011;441;51.192;6.788;2023-04-06T07:08:00;6.93;;;6.63;;
908;SDS011;441;51.192;6.788;2023-04-06T07:10:27;6.90;;;6.70;;
908;SDS011;441;51.192;6.788;2023-04-06T07:12:54;7.10;;;6.80;;
908;SDS011;441;51.192;6.788;2023-04-06T07:15:21;6.33;;;6.23;;
908;SDS011;441;51.192;6.788;2023-04-06T07:17:48;7.00;;;6.80;;
908;SDS011;441;51.192;6.788;2023-04-06T07:20:15;7.07;;;6.67;;
908;SDS011;441;51.192;6.788;2023-04-06T07:22:42;7.13;;;6.83;;
908;SDS011;441;51.192;6.788;2023-04-06T07:25:12;7.40;;;6.97;;
908;SDS011;441;51.192;6.788;2023-04-06T07:27:39;7.53;;;6.80;;
908;SDS011;441;51.192;6.788;2023-04-06T07:30:06;6.60;;;6.40;;
908;SDS011;441;51.192;6.788;2023-04-06T07:32:34;6.87;;;6.57;;
908;SDS011;441;51.192;6.788;2023-04-06T07:35:01;7.20;;;6.90;;
908;SDS011;441;51.192;6.788;2023-04-06T07:37:28;6.83;;;6.63;;
908;SDS011;441;51.192;6.788;2023-04-06T07:39:55;6.10;;;6.00;;
908;SDS011;441;51.192;6.788;2023-04-06T07:42:23;6.50;;;6.30;;
908;SDS011;441;51.192;6.788;2023-04-06T07:44:50;6.97;;;6.77;;
908;SDS011;441;51.192;6.788;2023-04-06T07:47:17;7.00;;;6.80;;
908;SDS011;441;51.192;6.788;2023-04-06T07:49:44;7.50;;;7.10;;
908;SDS011;441;51.192;6.788;2023-04-06T07:52:11;6.60;;;6.40;;
908;SDS011;441;51.192;6.788;2023-04-06T07:54:38;7.07;;;6.90;;
908;SDS011;441;51.192;6.788;2023-04-06T07:57:06;7.37;;;7.20;;
908;SDS011;441;51.192;6.788;2023-04-06T07:59:34;6.60;;;6.43;;
908;SDS011;441;51.192;6.788;2023-04-06T08:02:01;7.57;;;7.37;;
908;SDS011;441;51.192;6.788;2023-04-06T08:04:28;7.33;;;7.03;;
908;SDS011;441;51.192;6.788;2023-04-06T08:06:55;7.53;;;7.30;;
908;SDS011;441;51.192;6.788;2023-04-06T08:09:22;7.43;;;7.23;;
908;SDS011;441;51.192;6.788;2023-04-06T08:11:50;7.40;;;7.10;;
908;SDS011;441;51.192;6.788;2023-04-06T08:14:17;7.10;;;6.90;;
908;SDS011;441;51.192;6.788;2023-04-06T08:16:45;7.63;;;7.33;;
908;SDS011;441;51.192;6.788;2023-04-06T08:19:12;7.13;;;6.93;;
908;SDS011;441;51.192;6.788;2023-04-06T08:21:42;7.50;;;7.20;;
908;SDS011;441;51.192;6.788;2023-04-06T08:24:09;7.43;;;7.20;;
908;SDS011;441;51.192;6.788;2023-04-06T08:26:36;7.23;;;7.03;;
908;SDS011;441;51.192;6.788;2023-04-06T08:29:03;7.87;;;7.57;;
908;SDS011;441;51.192;6.788;2023-04-06T08:31:32;7.63;;;7.30;;
908;SDS011;441;51.192;6.788;2023-04-06T08:34:00;7.47;;;7.27;;
908;SDS011;441;51.192;6.788;2023-04-06T08:36:28;8.30;;;7.90;;
908;SDS011;441;51.192;6.788;2023-04-06T08:38:55;7.20;;;7.00;;
908;SDS011;441;51.192;6.788;2023-04-06T08:41:23;7.67;;;7.47;;
908;SDS011;441;51.192;6.788;2023-04-06T08:43:51;7.27;;;7.07;;
908;SDS011;441;51.192;6.788;2023-04-06T08:46:23;8.17;;;7.87;;
908;SDS011;441;51.192;6.788;2023-04-06T08:48:54;7.40;;;7.20;;
908;SDS011;441;51.192;6.788;2023-04-06T08:51:23;7.33;;;7.13;;
908;SDS011;441;51.192;6.788;2023-04-06T08:53:51;7.47;;;7.27;;
908;SDS011;441;51.192;6.788;2023-04-06T08:56:20;7.57;;;7.37;;
908;SDS011;441;51.192;6.788;2023-04-06T08:58:48;8.27;;;7.87;;
908;SDS011;441;51.192;6.788;2023-04-06T09:01:17;7.87;;;7.67;;
908;SDS011;441;51.192;6.788;2023-04-06T09:03:48;7.77;;;7.47;;
908;SDS011;441;51.192;6.788;2023-04-06T09:06:16;7.53;;;7.27;;
908;SDS011;441;51.192;6.788;2023-04-06T09:08:45;7.50;;;7.30;;
908;SDS011;441;51.192;6.788;2023-04-06T09:11:12;7.30;;;7.20;;
908;SDS011;441;51.192;6.788;2023-04-06T09:13:46;7.90;;;7.60;;
908;SDS011;441;51.192;6.788;2023-04-06T09:16:14;8.20;;;7.90;;
908;SDS011;441;51.192;6.788;2023-04-06T09:18:41;7.80;;;7.60;;
908;SDS011;441;51.192;6.788;2023-04-06T09:21:08;7.73;;;7.53;;
908;SDS011;441;51.192;6.788;2023-04-06T09:23:36;7.60;;;7.40;;
908;SDS011;441;51.192;6.788;2023-04-06T09:26:06;8.33;;;8.13;;
908;SDS011;441;51.192;6.788;2023-04-06T09:28:41;7.40;;;7.30;;
908;SDS011;441;51.192;6.788;2023-04-06T09:31:10;7.03;;;6.83;;
908;SDS011;441;51.192;6.788;2023-04-06T09:33:37;7.80;;;7.50;;
908;SDS011;441;51.192;6.788;2023-04-06T09:36:05;8.00;;;7.70;;
908;SDS011;441;51.192;6.788;2023-04-06T09:38:34;7.30;;;7.10;;
908;SDS011;441;51.192;6.788;2023-04-06T09:41:02;8.07;;;7.87;;
908;SDS011;441;51.192;6.788;2023-04-06T09:43:31;7.77;;;7.57;;
908;SDS011;441;51.192;6.788;2023-04-06T09:45:58;7.70;;;7.50;;
908;SDS011;441;51.192;6.788;2023-04-06T09:48:28;7.80;;;7.60;;
908;SDS011;441;51.192;6.788;2023-04-06T09:50:59;7.40;;;7.10;;
908;SDS011;441;51.192;6.788;2023-04-06T09:53:31;7.43;;;7.23;;
908;SDS011;441;51.192;6.788;2023-04-06T09:56:02;8.23;;;7.93;;
908;SDS011;441;51.192;6.788;2023-04-06T09:58:33;7.73;;;7.53;;
908;SDS011;441;51.192;6.788;2023-04-06T10:01:05;7.47;;;7.27;;
908;SDS011;441;51.192;6.788;2023-04-06T10:03:36;7.43;;;7.23;;
908;SDS011;441;51.192;6.788;2023-04-06T10:06:10;7.83;;;7.53;;
908;SDS011;441;51.192;6.788;2023-04-06T10:08:40;7.57;;;7.37;;
908;SDS011;441;51.192;6.788;2023-04-06T10:11:09;8.20;;;7.90;;
908;SDS011;441;51.192;6.788;2023-04-06T10:13:37;7.70;;;7.50;;
908;SDS011;441;51.192;6.788;2023-04-06T10:16:04;7.63;;;7.50;;
908;SDS011;441;51.192;6.788;2023-04-06T10:18:33;7.67;;;7.47;;
908;SDS011;441;51.192;6.788;2023-04-06T10:21:01;8.80;;;8.50;;
908;SDS011;441;51.192;6.788;2023-04-06T10:23:33;8.07;;;7.77;;
908;SDS011;441;51.192;6.788;2023-04-06T10:26:02;7.57;;;7.37;;
908;SDS011;441;51.192;6.788;2023-04-06T10:28:30;8.20;;;8.00;;
908;SDS011;441;51.192;6.788;2023-04-06T10:31:00;7.93;;;7.73;;
908;SDS011;441;51.192;6.788;2023-04-06T10:33:28;7.77;;;7.47;;
908;SDS011;441;51.192;6.788;2023-04-06T10:35:55;8.40;;;8.20;;
908;SDS011;441;51.192;6.788;2023-04-06T10:38:32;7.43;;;7.23;;
908;SDS011;441;51.192;6.788;2023-04-06T10:41:03;7.90;;;7.70;;
908;SDS011;441;51.192;6.788;2023-04-06T10:43:32;7.73;;;7.60;;
908;SDS011;441;51.192;6.788;2023-04-06T10:46:02;7.73;;;7.53;;
908;SDS011;441;51.192;6.788;2023-04-06T10:48:36;8.00;;;7.70;;
908;SDS011;441;51.192;6.788;2023-04-06T10:51:07;7.47;;;7.30;;
908;SDS011;441;51.192;6.788;2023-04-06T10:53:35;7.30;;;7.10;;
908;SDS011;441;51.192;6.788;2023-04-06T10:56:02;7.87;;;7.67;;
908;SDS011;441;51.192;6.788;2023-04-06T10:58:31;7.50;;;7.30;;
908;SDS011;441;51.192;6.788;2023-04-06T11:00:58;7.63;;;7.43;;
908;SDS011;441;51.192;6.788;2023-04-06T11:03:27;7.70;;;7.50;;
908;SDS011;441;51.192;6.788;2023-04-06T11:05:54;7.70;;;7.50;;
908;SDS011;441;51.192;6.788;2023-04-06T11:08:22;7.30;;;7.10;;
908;SDS011;441;51.192;6.788;2023-04-06T11:10:49;7.70;;;7.50;;
908;SDS011;441;51.192;6.788;2023-04-06T11:13:16;4.90;;;4.80;;
908;SDS011;441;51.192;6.788;2023-04-06T11:15:44;5.10;;;5.00;;
908;SDS011;441;51.192;6.788;2023-04-06T11:18:11;5.30;;;5.20;;
908;SDS011;441;51.192;6.788;2023-04-06T11:20:39;4.47;;;4.37;;
908;SDS011;441;51.192;6.788;2023-04-06T11:23:13;5.57;;;5.47;;
908;SDS011;441;51.192;6.788;2023-04-06T11:25:50;5.17;;;5.07;;
908;SDS011;441;51.192;6.788;2023-04-06T11:28:17;4.63;;;4.53;;
908;SDS011;441;51.192;6.788;2023-04-06T11:30:45;5.30;;;5.20;;
908;SDS011;441;51.192;6.788;2023-04-06T11:33:19;5.00;;;4.80;;
908;SDS011;441;51.192;6.788;2023-04-06T11:35:48;4.07;;;4.03;;
908;SDS011;441;51.192;6.788;2023-04-06T11:38:17;5.27;;;5.07;;
908;SDS011;441;51.192;6.788;2023-04-06T11:40:44;5.17;;;5.07;;
908;SDS011;441;51.192;6.788;2023-04-06T11:43:11;4.60;;;4.50;;
908;SDS011;441;51.192;6.788;2023-04-06T11:45:41;4.60;;;4.50;;
908;SDS011;441;51.192;6.788;2023-04-06T11:48:17;4.80;;;4.70;;
908;SDS011;441;51.192;6.788;2023-04-06T11:50:46;4.40;;;4.30;;
908;SDS011;441;51.192;6.788;2023-04-06T11:53:15;4.63;;;4.53;;
908;SDS011;441;51.192;6.788;2023-04-06T11:55:42;4.87;;;4.77;;
908;SDS011;441;51.192;6.788;2023-04-06T11:58:12;4.60;;;4.50;;
908;SDS011;441;51.192;6.788;2023-04-06T12:00:39;5.07;;;4.87;;
908;SDS011;441;51.192;6.788;2023-04-06T12:03:10;4.70;;;4.60;;
908;SDS011;441;51.192;6.788;2023-04-06T12:05:37;5.57;;;5.37;;
908;SDS011;441;51.192;6.788;2023-04-06T12:08:04;4.97;;;4.87;;
908;SDS011;441;51.192;6.788;2023-04-06T12:10:32;4.80;;;4.70;;
908;SDS011;441;51.192;6.788;2023-04-06T12:12:59;5.57;;;5.37;;
908;SDS011;441;51.192;6.788;2023-04-06T12:15:26;5.20;;;5.10;;
908;SDS011;441;51.192;6.788;2023-04-06T12:17:53;4.50;;;4.40;;
908;SDS011;441;51.192;6.788;2023-04-06T12:20:20;4.50;;;4.40;;
908;SDS011;441;51.192;6.788;2023-04-06T12:22:47;4.57;;;4.47;;
908;SDS011;441;51.192;6.788;2023-04-06T12:25:14;4.73;;;4.53;;
908;SDS011;441;51.192;6.788;2023-04-06T12:27:42;4.50;;;4.40;;
908;SDS011;441;51.192;6.788;2023-04-06T12:30:10;4.70;;;4.60;;
908;SDS011;441;51.192;6.788;2023-04-06T12:32:38;4.37;;;4.33;;
908;SDS011;441;51.192;6.788;2023-04-06T12:35:05;5.03;;;4.93;;
908;SDS011;441;51.192;6.788;2023-04-06T12:37:33;4.40;;;4.30;;
908;SDS011;441;51.192;6.788;2023-04-06T12:40:01;4.60;;;4.47;;
908;SDS011;441;51.192;6.788;2023-04-06T12:42:29;5.00;;;4.90;;
908;SDS011;441;51.192;6.788;2023-04-06T12:44:57;4.90;;;4.80;;
908;SDS011;441;51.192;6.788;2023-04-06T12:47:25;4.70;;;4.60;;
908;SDS011;441;51.192;6.788;2023-04-06T12:49:52;4.90;;;4.80;;
908;SDS011;441;51.192;6.788;2023-04-06T12:52:20;4.50;;;4.40;;
908;SDS011;441;51.192;6.788;2023-04-06T12:54:47;4.47;;;4.37;;
908;SDS011;441;51.192;6.788;2023-04-06T12:57:14;5.27;;;5.17;;
908;SDS011;441;51.192;6.788;2023-04-06T12:59:42;5.37;;;5.27;;
908;SDS011;441;51.192;6.788;2023-04-06T13:02:11;4.60;;;4.50;;
908;SDS011;441;51.192;6.788;2023-04-06T13:04:38;5.27;;;5.17;;
908;SDS011;441;51.192;6.788;2023-04-06T13:07:05;4.80;;;4.70;;
908;SDS011;441;51.192;6.788;2023-04-06T13:09:32;5.43;;;5.33;;
908;SDS011;441;51.192;6.788;2023-04-06T13:11:59;4.60;;;4.50;;
908;SDS011;441;51.192;6.788;2023-04-06T13:14:27;5.20;;;5.10;;
908;SDS011;441;51.192;6.788;2023-04-06T13:16:54;4.63;;;4.53;;
908;SDS011;441;51.192;6.788;2023-04-06T13:19:22;4.67;;;4.57;;
908;SDS011;441;51.192;6.788;2023-04-06T13:21:50;4.77;;;4.67;;
908;SDS011;441;51.192;6.788;2023-04-06T13:24:17;5.30;;;5.20;;
908;SDS011;441;51.192;6.788;2023-04-06T13:26:44;5.10;;;5.00;;
908;SDS011;441;51.192;6.788;2023-04-06T13:29:11;4.67;;;4.57;;
908;SDS011;441;51.192;6.788;2023-04-06T13:31:38;5.23;;;4.93;;
908;SDS011;441;51.192;6.788;2023-04-06T13:34:05;5.77;;;5.60;;
908;SDS011;441;51.192;6.788;2023-04-06T13:36:34;5.00;;;4.90;;
908;SDS011;441;51.192;6.788;2023-04-06T13:39:00;5.30;;;5.20;;
908;SDS011;441;51.192;6.788;2023-04-06T13:41:28;6.37;;;5.20;;
908;SDS011;441;51.192;6.788;2023-04-06T13:43:55;5.00;;;4.90;;
908;SDS011;441;51.192;6.788;2023-04-06T13:46:23;4.67;;;4.57;;
908;SDS011;441;51.192;6.788;2023-04-06T13:48:50;4.73;;;4.60;;
908;SDS011;441;51.192;6.788;2023-04-06T13:51:17;4.40;;;4.30;;
908;SDS011;441;51.192;6.788;2023-04-06T13:53:45;4.50;;;4.40;;
908;SDS011;441;51.192;6.788;2023-04-06T13:56:12;4.40;;;4.30;;
908;SDS011;441;51.192;6.788;2023-04-06T13:58:39;5.03;;;4.93;;
908;SDS011;441;51.192;6.788;2023-04-06T14:01:06;5.93;;;5.73;;
908;SDS011;441;51.192;6.788;2023-04-06T14:03:34;4.63;;;4.53;;
908;SDS011;441;51.192;6.788;2023-04-06T14:06:01;4.87;;;4.77;;
908;SDS011;441;51.192;6.788;2023-04-06T14:08:36;5.27;;;5.13;;
908;SDS011;441;51.192;6.788;2023-04-06T14:11:04;4.90;;;4.80;;
908;SDS011;441;51.192;6.788;2023-04-06T14:13:33;4.83;;;4.73;;
908;SDS011;441;51.192;6.788;2023-04-06T14:16:00;5.00;;;4.80;;
908;SDS011;441;51.192;6.788;2023-04-06T14:18:27;4.87;;;4.67;;
908;SDS011;441;51.192;6.788;2023-04-06T14:20:56;5.43;;;5.03;;
908;SDS011;441;51.192;6.788;2023-04-06T14:23:23;4.20;;;4.10;;
908;SDS011;441;51.192;6.788;2023-04-06T14:25:51;5.57;;;5.47;;
908;SDS011;441;51.192;6.788;2023-04-06T14:28:29;4.68;;;4.47;;
908;SDS011;441;51.192;6.788;2023-04-06T14:30:56;7.87;;;7.47;;
908;SDS011;441;51.192;6.788;2023-04-06T14:33:23;6.17;;;6.07;;
908;SDS011;441;51.192;6.788;2023-04-06T14:35:50;6.93;;;6.73;;
908;SDS011;441;51.192;6.788;2023-04-06T14:38:17;6.30;;;6.10;;
908;SDS011;441;51.192;6.788;2023-04-06T14:40:43;6.53;;;6.40;;
908;SDS011;441;51.192;6.788;2023-04-06T14:43:11;6.23;;;5.93;;
908;SDS011;441;51.192;6.788;2023-04-06T14:45:39;6.30;;;6.10;;
908;SDS011;441;51.192;6.788;2023-04-06T14:48:06;5.93;;;5.83;;
908;SDS011;441;51.192;6.788;2023-04-06T14:50:36;6.60;;;6.00;;
908;SDS011;441;51.192;6.788;2023-04-06T14:53:04;6.03;;;5.83;;
908;SDS011;441;51.192;6.788;2023-04-06T14:55:31;5.93;;;5.83;;
908;SDS011;441;51.192;6.788;2023-04-06T14:57:59;6.33;;;6.03;;
908;SDS011;441;51.192;6.788;2023-04-06T15:00:25;6.07;;;5.97;;
908;SDS011;441;51.192;6.788;2023-04-06T15:02:54;6.07;;;5.87;;
908;SDS011;441;51.192;6.788;2023-04-06T15:05:21;6.50;;;6.30;;
908;SDS011;441;51.192;6.788;2023-04-06T15:07:47;6.20;;;6.10;;
908;SDS011;441;51.192;6.788;2023-04-06T15:10:14;6.20;;;6.10;;
908;SDS011;441;51.192;6.788;2023-04-06T15:12:41;5.53;;;5.43;;
908;SDS011;441;51.192;6.788;2023-04-06T15:15:08;6.70;;;6.13;;
908;SDS011;441;51.192;6.788;2023-04-06T15:17:36;6.87;;;6.77;;
908;SDS011;441;51.192;6.788;2023-04-06T15:20:05;6.53;;;6.40;;
908;SDS011;441;51.192;6.788;2023-04-06T15:22:32;7.00;;;6.80;;
908;SDS011;441;51.192;6.788;2023-04-06T15:24:59;6.17;;;5.87;;
908;SDS011;441;51.192;6.788;2023-04-06T15:27:26;5.97;;;5.87;;
908;SDS011;441;51.192;6.788;2023-04-06T15:29:53;7.43;;;7.23;;
908;SDS011;441;51.192;6.788;2023-04-06T15:32:20;6.40;;;6.20;;
908;SDS011;441;51.192;6.788;2023-04-06T15:34:47;5.47;;;5.37;;
908;SDS011;441;51.192;6.788;2023-04-06T15:37:15;6.87;;;6.67;;
908;SDS011;441;51.192;6.788;2023-04-06T15:39:42;5.57;;;5.47;;
908;SDS011;441;51.192;6.788;2023-04-06T15:42:09;6.20;;;5.90;;
908;SDS011;441;51.192;6.788;2023-04-06T15:44:36;5.67;;;5.50;;
908;SDS011;441;51.192;6.788;2023-04-06T15:47:03;5.03;;;4.93;;
908;SDS011;441;51.192;6.788;2023-04-06T15:49:30;5.63;;;5.53;;